KMHK

Manhattan Regional Airport

Manhattan, Kansas, USA
METAR KMHK 230252Z AUTO 00000KT 10SM CLR 24/18 A2997 RMK AO2 SLP140 T02390183 53014
Observed Flight Rules
May-23 @ 02:52 UTC (21 minutes ago) Visual Flight Rules
Visibility Clouds
10 miles
  • Clear skies
Temperatures Readings
Current 24°C / 75°F
Dewpoint 18°C / 64°F
Humidity 69%
Altimeter 29.97" Hg
Pressure 1014 hPa
Elevation 317
METAR KMHK 230252Z AUTO 00000KT 10SM CLR 24/18 A2997 RMK AO2 SLP140 T02390183 53014
Observed Flight Rules
May-23 @ 02:52 UTC
(21 minutes ago)
VFR
Clouds
  • Clear skies
Temperature Dewpoint
24°C / 75°F 18°C / 64°F
Humidity Altimeter Pressure
69% 29.97" Hg 1014 hPa